sensor_id;sensor_type;location;lat;lon;timestamp;temperature;humidity
9179;DHT22;71287;48.414;11.478;2023-11-19T00:00:06;6.10;99.90
9179;DHT22;71287;48.414;11.478;2023-11-19T00:06:01;6.20;99.90
9179;DHT22;71287;48.414;11.478;2023-11-19T00:08:28;6.30;99.90
9179;DHT22;71287;48.414;11.478;2023-11-19T00:10:55;6.30;99.90
9179;DHT22;71287;48.414;11.478;2023-11-19T00:13:21;6.40;99.90
9179;DHT22;71287;48.414;11.478;2023-11-19T00:15:48;6.40;99.90
9179;DHT22;71287;48.414;11.478;2023-11-19T00:18:15;6.40;99.90
9179;DHT22;71287;48.414;11.478;2023-11-19T00:20:42;6.40;99.90
9179;DHT22;71287;48.414;11.478;2023-11-19T00:23:11;6.40;99.90
9179;DHT22;71287;48.414;11.478;2023-11-19T00:25:38;6.40;99.90
9179;DHT22;71287;48.414;11.478;2023-11-19T00:28:05;6.40;99.90
9179;DHT22;71287;48.414;11.478;2023-11-19T00:30:32;6.40;99.90
9179;DHT22;71287;48.414;11.478;2023-11-19T00:32:59;6.40;99.90
9179;DHT22;71287;48.414;11.478;2023-11-19T00:35:25;6.40;99.90
9179;DHT22;71287;48.414;11.478;2023-11-19T00:37:52;6.50;99.90
9179;DHT22;71287;48.414;11.478;2023-11-19T00:40:21;6.50;99.90
9179;DHT22;71287;48.414;11.478;2023-11-19T00:42:48;6.50;99.90
9179;DHT22;71287;48.414;11.478;2023-11-19T00:45:15;6.50;99.90
9179;DHT22;71287;48.414;11.478;2023-11-19T00:47:42;6.60;99.90
9179;DHT22;71287;48.414;11.478;2023-11-19T00:50:10;6.60;99.90
9179;DHT22;71287;48.414;11.478;2023-11-19T00:52:36;6.60;99.90
9179;DHT22;71287;48.414;11.478;2023-11-19T00:55:04;6.60;99.90
9179;DHT22;71287;48.414;11.478;2023-11-19T00:57:33;6.60;99.90
9179;DHT22;71287;48.414;11.478;2023-11-19T01:00:01;6.70;99.90
9179;DHT22;71287;48.414;11.478;2023-11-19T01:02:28;6.70;99.90
9179;DHT22;71287;48.414;11.478;2023-11-19T01:04:55;6.70;99.90
9179;DHT22;71287;48.414;11.478;2023-11-19T01:07:22;6.70;99.90
9179;DHT22;71287;48.414;11.478;2023-11-19T01:09:49;6.70;99.90
9179;DHT22;71287;48.414;11.478;2023-11-19T01:12:17;6.70;99.90
9179;DHT22;71287;48.414;11.478;2023-11-19T01:14:45;6.80;99.90
9179;DHT22;71287;48.414;11.478;2023-11-19T01:17:11;6.80;99.90
9179;DHT22;71287;48.414;11.478;2023-11-19T01:19:38;6.90;99.90
9179;DHT22;71287;48.414;11.478;2023-11-19T01:22:05;6.80;99.90
9179;DHT22;71287;48.414;11.478;2023-11-19T01:24:32;6.90;99.90
9179;DHT22;71287;48.414;11.478;2023-11-19T01:26:59;6.90;99.90
9179;DHT22;71287;48.414;11.478;2023-11-19T01:29:26;6.90;99.90
9179;DHT22;71287;48.414;11.478;2023-11-19T01:31:54;6.90;99.90
9179;DHT22;71287;48.414;11.478;2023-11-19T01:34:21;6.90;99.90
9179;DHT22;71287;48.414;11.478;2023-11-19T01:36:48;6.90;99.90
9179;DHT22;71287;48.414;11.478;2023-11-19T01:39:15;7.00;99.90
9179;DHT22;71287;48.414;11.478;2023-11-19T01:41:42;7.00;99.90
9179;DHT22;71287;48.414;11.478;2023-11-19T01:44:09;7.00;99.90
9179;DHT22;71287;48.414;11.478;2023-11-19T01:46:38;7.00;99.90
9179;DHT22;71287;48.414;11.478;2023-11-19T01:49:08;7.00;99.90
9179;DHT22;71287;48.414;11.478;2023-11-19T01:51:37;7.10;99.90
9179;DHT22;71287;48.414;11.478;2023-11-19T01:54:04;7.10;99.90
9179;DHT22;71287;48.414;11.478;2023-11-19T01:56:32;7.10;99.90
9179;DHT22;71287;48.414;11.478;2023-11-19T01:58:58;7.10;99.90
9179;DHT22;71287;48.414;11.478;2023-11-19T02:01:25;7.10;99.90
9179;DHT22;71287;48.414;11.478;2023-11-19T02:03:52;7.20;99.90
9179;DHT22;71287;48.414;11.478;2023-11-19T02:06:20;7.20;99.90
9179;DHT22;71287;48.414;11.478;2023-11-19T02:08:47;7.20;99.90
9179;DHT22;71287;48.414;11.478;2023-11-19T02:11:14;7.20;99.90
9179;DHT22;71287;48.414;11.478;2023-11-19T02:13:41;7.20;99.90
9179;DHT22;71287;48.414;11.478;2023-11-19T02:16:10;7.30;99.90
9179;DHT22;71287;48.414;11.478;2023-11-19T02:18:37;7.30;99.90
9179;DHT22;71287;48.414;11.478;2023-11-19T02:21:04;7.40;99.90
9179;DHT22;71287;48.414;11.478;2023-11-19T02:23:33;7.40;99.90
9179;DHT22;71287;48.414;11.478;2023-11-19T02:26:03;7.40;99.90
9179;DHT22;71287;48.414;11.478;2023-11-19T02:28:33;7.50;99.90
9179;DHT22;71287;48.414;11.478;2023-11-19T02:31:01;7.50;99.90
9179;DHT22;71287;48.414;11.478;2023-11-19T02:33:30;7.60;99.90
9179;DHT22;71287;48.414;11.478;2023-11-19T02:35:56;7.60;99.90
9179;DHT22;71287;48.414;11.478;2023-11-19T02:38:23;7.70;99.90
9179;DHT22;71287;48.414;11.478;2023-11-19T02:40:51;7.70;99.90
9179;DHT22;71287;48.414;11.478;2023-11-19T02:43:18;7.80;99.90
9179;DHT22;71287;48.414;11.478;2023-11-19T02:45:46;7.80;99.90
9179;DHT22;71287;48.414;11.478;2023-11-19T02:48:13;7.90;99.90
9179;DHT22;71287;48.414;11.478;2023-11-19T02:50:41;7.90;99.90
9179;DHT22;71287;48.414;11.478;2023-11-19T02:53:08;8.00;99.90
9179;DHT22;71287;48.414;11.478;2023-11-19T02:55:35;8.00;99.90
9179;DHT22;71287;48.414;11.478;2023-11-19T02:58:03;8.10;99.90
9179;DHT22;71287;48.414;11.478;2023-11-19T03:00:35;8.20;99.90
9179;DHT22;71287;48.414;11.478;2023-11-19T03:03:08;8.30;99.90
9179;DHT22;71287;48.414;11.478;2023-11-19T03:05:45;8.30;99.90
9179;DHT22;71287;48.414;11.478;2023-11-19T03:08:14;8.40;99.90
9179;DHT22;71287;48.414;11.478;2023-11-19T03:10:41;8.40;99.90
9179;DHT22;71287;48.414;11.478;2023-11-19T03:13:11;8.50;99.90
9179;DHT22;71287;48.414;11.478;2023-11-19T03:15:39;8.50;99.90
9179;DHT22;71287;48.414;11.478;2023-11-19T03:18:06;8.60;99.90
9179;DHT22;71287;48.414;11.478;2023-11-19T03:20:34;8.60;99.90
9179;DHT22;71287;48.414;11.478;2023-11-19T03:23:01;8.70;99.90
9179;DHT22;71287;48.414;11.478;2023-11-19T03:25:28;8.70;99.90
9179;DHT22;71287;48.414;11.478;2023-11-19T03:27:58;8.80;99.90
9179;DHT22;71287;48.414;11.478;2023-11-19T03:30:26;8.80;99.90
9179;DHT22;71287;48.414;11.478;2023-11-19T03:32:53;8.80;99.90
9179;DHT22;71287;48.414;11.478;2023-11-19T03:35:21;8.90;99.90
9179;DHT22;71287;48.414;11.478;2023-11-19T03:37:49;8.90;99.90
9179;DHT22;71287;48.414;11.478;2023-11-19T03:40:16;8.90;99.90
9179;DHT22;71287;48.414;11.478;2023-11-19T03:42:44;9.00;99.90
9179;DHT22;71287;48.414;11.478;2023-11-19T03:45:11;9.00;99.90
9179;DHT22;71287;48.414;11.478;2023-11-19T03:47:38;9.00;99.90
9179;DHT22;71287;48.414;11.478;2023-11-19T03:50:06;9.00;99.90
9179;DHT22;71287;48.414;11.478;2023-11-19T03:52:33;9.10;99.90
9179;DHT22;71287;48.414;11.478;2023-11-19T03:55:01;9.10;99.90
9179;DHT22;71287;48.414;11.478;2023-11-19T03:57:29;9.10;99.90
9179;DHT22;71287;48.414;11.478;2023-11-19T03:59:56;9.10;99.90
9179;DHT22;71287;48.414;11.478;2023-11-19T04:02:24;9.10;99.90
9179;DHT22;71287;48.414;11.478;2023-11-19T04:04:53;9.20;99.90
9179;DHT22;71287;48.414;11.478;2023-11-19T04:07:20;9.20;99.90
9179;DHT22;71287;48.414;11.478;2023-11-19T04:09:47;9.20;99.90
9179;DHT22;71287;48.414;11.478;2023-11-19T04:12:15;9.20;99.90
9179;DHT22;71287;48.414;11.478;2023-11-19T04:14:42;9.20;99.90
9179;DHT22;71287;48.414;11.478;2023-11-19T04:17:09;9.20;99.90
9179;DHT22;71287;48.414;11.478;2023-11-19T04:19:36;9.20;99.90
9179;DHT22;71287;48.414;11.478;2023-11-19T04:22:03;9.30;99.90
9179;DHT22;71287;48.414;11.478;2023-11-19T04:24:30;9.20;99.90
9179;DHT22;71287;48.414;11.478;2023-11-19T04:26:57;9.20;99.90
9179;DHT22;71287;48.414;11.478;2023-11-19T04:29:25;9.30;99.90
9179;DHT22;71287;48.414;11.478;2023-11-19T04:31:52;9.30;99.90
9179;DHT22;71287;48.414;11.478;2023-11-19T04:34:18;9.30;99.90
9179;DHT22;71287;48.414;11.478;2023-11-19T04:36:45;9.30;99.90
9179;DHT22;71287;48.414;11.478;2023-11-19T04:39:12;9.30;99.90
9179;DHT22;71287;48.414;11.478;2023-11-19T04:41:50;9.30;99.90
9179;DHT22;71287;48.414;11.478;2023-11-19T04:44:17;9.40;99.90
9179;DHT22;71287;48.414;11.478;2023-11-19T04:46:46;9.40;99.90
9179;DHT22;71287;48.414;11.478;2023-11-19T04:49:13;9.40;99.90
9179;DHT22;71287;48.414;11.478;2023-11-19T04:51:41;9.40;99.90
9179;DHT22;71287;48.414;11.478;2023-11-19T04:54:08;9.40;99.90
9179;DHT22;71287;48.414;11.478;2023-11-19T04:56:36;9.40;99.90
9179;DHT22;71287;48.414;11.478;2023-11-19T04:59:03;9.40;99.90
9179;DHT22;71287;48.414;11.478;2023-11-19T05:01:31;9.40;99.90
9179;DHT22;71287;48.414;11.478;2023-11-19T05:03:59;9.40;99.90
9179;DHT22;71287;48.414;11.478;2023-11-19T05:06:27;9.40;99.90
9179;DHT22;71287;48.414;11.478;2023-11-19T05:08:54;9.50;99.90
9179;DHT22;71287;48.414;11.478;2023-11-19T05:11:21;9.50;99.90
9179;DHT22;71287;48.414;11.478;2023-11-19T05:13:48;9.50;99.90
9179;DHT22;71287;48.414;11.478;2023-11-19T05:16:15;9.50;99.90
9179;DHT22;71287;48.414;11.478;2023-11-19T05:18:43;9.50;99.90
9179;DHT22;71287;48.414;11.478;2023-11-19T05:21:11;9.50;99.90
9179;DHT22;71287;48.414;11.478;2023-11-19T05:23:39;9.50;99.90
9179;DHT22;71287;48.414;11.478;2023-11-19T05:26:07;9.50;99.90
9179;DHT22;71287;48.414;11.478;2023-11-19T05:28:34;9.50;99.90
9179;DHT22;71287;48.414;11.478;2023-11-19T05:31:01;9.50;99.90
9179;DHT22;71287;48.414;11.478;2023-11-19T05:33:27;9.50;99.90
9179;DHT22;71287;48.414;11.478;2023-11-19T05:35:54;9.50;99.90
9179;DHT22;71287;48.414;11.478;2023-11-19T05:38:23;9.50;99.90
9179;DHT22;71287;48.414;11.478;2023-11-19T05:40:50;9.60;99.90
9179;DHT22;71287;48.414;11.478;2023-11-19T05:43:17;9.60;99.90
9179;DHT22;71287;48.414;11.478;2023-11-19T05:45:44;9.60;99.90
9179;DHT22;71287;48.414;11.478;2023-11-19T05:48:10;9.60;99.90
9179;DHT22;71287;48.414;11.478;2023-11-19T05:50:37;9.60;99.90
9179;DHT22;71287;48.414;11.478;2023-11-19T05:53:04;9.60;99.90
9179;DHT22;71287;48.414;11.478;2023-11-19T05:55:35;9.60;99.90
9179;DHT22;71287;48.414;11.478;2023-11-19T05:58:10;9.60;99.90
9179;DHT22;71287;48.414;11.478;2023-11-19T06:00:37;9.70;99.90
9179;DHT22;71287;48.414;11.478;2023-11-19T06:03:04;9.60;99.90
9179;DHT22;71287;48.414;11.478;2023-11-19T06:05:31;9.70;99.90
9179;DHT22;71287;48.414;11.478;2023-11-19T06:07:58;9.70;99.90
9179;DHT22;71287;48.414;11.478;2023-11-19T06:10:24;9.70;99.90
9179;DHT22;71287;48.414;11.478;2023-11-19T06:12:57;9.70;99.90
9179;DHT22;71287;48.414;11.478;2023-11-19T06:15:25;9.70;99.90
9179;DHT22;71287;48.414;11.478;2023-11-19T06:17:53;9.80;99.90
9179;DHT22;71287;48.414;11.478;2023-11-19T06:20:20;9.70;99.90
9179;DHT22;71287;48.414;11.478;2023-11-19T06:22:46;9.80;99.90
9179;DHT22;71287;48.414;11.478;2023-11-19T06:25:13;9.80;99.90
9179;DHT22;71287;48.414;11.478;2023-11-19T06:27:41;9.80;99.90
9179;DHT22;71287;48.414;11.478;2023-11-19T06:30:10;9.80;99.90
9179;DHT22;71287;48.414;11.478;2023-11-19T06:32:37;9.90;99.90
9179;DHT22;71287;48.414;11.478;2023-11-19T06:35:04;9.90;99.90
9179;DHT22;71287;48.414;11.478;2023-11-19T06:37:31;9.90;99.90
9179;DHT22;71287;48.414;11.478;2023-11-19T06:39:58;9.90;99.90
9179;DHT22;71287;48.414;11.478;2023-11-19T06:42:25;9.90;99.90
9179;DHT22;71287;48.414;11.478;2023-11-19T06:44:52;10.00;99.90
9179;DHT22;71287;48.414;11.478;2023-11-19T06:47:20;10.00;99.90
9179;DHT22;71287;48.414;11.478;2023-11-19T06:49:47;10.00;99.90
9179;DHT22;71287;48.414;11.478;2023-11-19T06:52:13;10.00;99.90
9179;DHT22;71287;48.414;11.478;2023-11-19T06:54:40;10.00;99.90
9179;DHT22;71287;48.414;11.478;2023-11-19T06:57:07;10.10;99.90
9179;DHT22;71287;48.414;11.478;2023-11-19T06:59:35;10.10;99.90
9179;DHT22;71287;48.414;11.478;2023-11-19T07:02:02;10.10;99.90
9179;DHT22;71287;48.414;11.478;2023-11-19T07:04:30;10.10;99.90
9179;DHT22;71287;48.414;11.478;2023-11-19T07:06:56;10.20;99.90
9179;DHT22;71287;48.414;11.478;2023-11-19T07:09:23;10.20;99.90
9179;DHT22;71287;48.414;11.478;2023-11-19T07:11:50;10.20;99.90
9179;DHT22;71287;48.414;11.478;2023-11-19T07:14:17;10.20;99.90
9179;DHT22;71287;48.414;11.478;2023-11-19T07:16:46;10.20;99.90
9179;DHT22;71287;48.414;11.478;2023-11-19T07:19:12;10.30;99.90
9179;DHT22;71287;48.414;11.478;2023-11-19T07:21:42;10.30;99.90
9179;DHT22;71287;48.414;11.478;2023-11-19T07:24:10;10.30;99.90
9179;DHT22;71287;48.414;11.478;2023-11-19T07:26:41;10.30;99.90
9179;DHT22;71287;48.414;11.478;2023-11-19T07:29:09;10.40;99.90
9179;DHT22;71287;48.414;11.478;2023-11-19T07:31:35;10.40;99.90
9179;DHT22;71287;48.414;11.478;2023-11-19T07:34:02;10.40;99.90
9179;DHT22;71287;48.414;11.478;2023-11-19T07:36:30;10.50;99.90
9179;DHT22;71287;48.414;11.478;2023-11-19T07:38:58;10.50;99.90
9179;DHT22;71287;48.414;11.478;2023-11-19T07:41:25;10.50;99.90
9179;DHT22;71287;48.414;11.478;2023-11-19T07:43:52;10.50;99.90
9179;DHT22;71287;48.414;11.478;2023-11-19T07:46:20;10.50;99.90
9179;DHT22;71287;48.414;11.478;2023-11-19T07:48:47;10.60;99.90
9179;DHT22;71287;48.414;11.478;2023-11-19T07:51:14;10.60;99.90
9179;DHT22;71287;48.414;11.478;2023-11-19T07:53:41;10.60;99.90
9179;DHT22;71287;48.414;11.478;2023-11-19T07:56:10;10.70;99.90
9179;DHT22;71287;48.414;11.478;2023-11-19T07:58:36;10.70;99.90
9179;DHT22;71287;48.414;11.478;2023-11-19T08:01:04;10.70;99.90
9179;DHT22;71287;48.414;11.478;2023-11-19T08:03:31;10.70;99.90
9179;DHT22;71287;48.414;11.478;2023-11-19T08:06:00;10.80;99.90
9179;DHT22;71287;48.414;11.478;2023-11-19T08:08:27;10.80;99.90
9179;DHT22;71287;48.414;11.478;2023-11-19T08:10:55;10.90;99.90
9179;DHT22;71287;48.414;11.478;2023-11-19T08:13:23;10.90;99.90
9179;DHT22;71287;48.414;11.478;2023-11-19T08:15:50;11.00;99.90
9179;DHT22;71287;48.414;11.478;2023-11-19T08:18:17;11.00;99.90
9179;DHT22;71287;48.414;11.478;2023-11-19T08:20:44;11.10;99.90
9179;DHT22;71287;48.414;11.478;2023-11-19T08:23:13;11.10;99.90
9179;DHT22;71287;48.414;11.478;2023-11-19T08:25:39;11.10;99.90
9179;DHT22;71287;48.414;11.478;2023-11-19T08:28:06;11.20;99.90
9179;DHT22;71287;48.414;11.478;2023-11-19T08:30:34;11.30;99.90
9179;DHT22;71287;48.414;11.478;2023-11-19T08:33:01;11.30;99.90
9179;DHT22;71287;48.414;11.478;2023-11-19T08:35:29;11.40;99.90
9179;DHT22;71287;48.414;11.478;2023-11-19T08:37:56;11.40;99.90
9179;DHT22;71287;48.414;11.478;2023-11-19T08:40:23;11.50;99.90
9179;DHT22;71287;48.414;11.478;2023-11-19T08:42:50;11.50;99.90
9179;DHT22;71287;48.414;11.478;2023-11-19T08:45:17;11.50;99.90
9179;DHT22;71287;48.414;11.478;2023-11-19T08:47:45;11.60;99.90
9179;DHT22;71287;48.414;11.478;2023-11-19T08:50:12;11.60;99.90
9179;DHT22;71287;48.414;11.478;2023-11-19T08:52:38;11.70;99.90
9179;DHT22;71287;48.414;11.478;2023-11-19T08:55:06;11.70;99.90
9179;DHT22;71287;48.414;11.478;2023-11-19T08:57:32;11.80;99.90
9179;DHT22;71287;48.414;11.478;2023-11-19T08:59:59;11.90;99.90
9179;DHT22;71287;48.414;11.478;2023-11-19T09:02:26;12.20;99.90
9179;DHT22;71287;48.414;11.478;2023-11-19T09:04:54;12.30;99.90
9179;DHT22;71287;48.414;11.478;2023-11-19T09:07:21;12.40;99.90
9179;DHT22;71287;48.414;11.478;2023-11-19T09:09:48;12.70;99.90
9179;DHT22;71287;48.414;11.478;2023-11-19T09:12:14;13.00;99.90
9179;DHT22;71287;48.414;11.478;2023-11-19T09:14:41;13.20;99.90
9179;DHT22;71287;48.414;11.478;2023-11-19T09:17:08;13.30;99.90
9179;DHT22;71287;48.414;11.478;2023-11-19T09:19:35;13.40;99.90
9179;DHT22;71287;48.414;11.478;2023-11-19T09:22:04;13.40;99.90
9179;DHT22;71287;48.414;11.478;2023-11-19T09:24:30;13.40;99.90
9179;DHT22;71287;48.414;11.478;2023-11-19T09:26:57;13.40;99.90
9179;DHT22;71287;48.414;11.478;2023-11-19T09:29:25;13.30;99.90
9179;DHT22;71287;48.414;11.478;2023-11-19T09:31:52;13.40;99.90
9179;DHT22;71287;48.414;11.478;2023-11-19T09:34:19;13.50;99.90
9179;DHT22;71287;48.414;11.478;2023-11-19T09:36:46;13.70;99.90
9179;DHT22;71287;48.414;11.478;2023-11-19T09:39:14;13.90;99.90
9179;DHT22;71287;48.414;11.478;2023-11-19T09:41:43;14.10;99.90
9179;DHT22;71287;48.414;11.478;2023-11-19T09:44:10;14.10;99.90
9179;DHT22;71287;48.414;11.478;2023-11-19T09:46:38;14.10;99.90
9179;DHT22;71287;48.414;11.478;2023-11-19T09:49:05;14.00;99.90
9179;DHT22;71287;48.414;11.478;2023-11-19T09:51:34;14.00;99.90
9179;DHT22;71287;48.414;11.478;2023-11-19T09:54:01;13.90;99.90
9179;DHT22;71287;48.414;11.478;2023-11-19T09:56:29;13.90;99.90
9179;DHT22;71287;48.414;11.478;2023-11-19T09:58:56;13.90;99.90
9179;DHT22;71287;48.414;11.478;2023-11-19T10:01:23;14.10;99.90
9179;DHT22;71287;48.414;11.478;2023-11-19T10:03:53;14.20;99.90
9179;DHT22;71287;48.414;11.478;2023-11-19T10:06:25;14.40;99.90
9179;DHT22;71287;48.414;11.478;2023-11-19T10:08:52;14.50;99.90
9179;DHT22;71287;48.414;11.478;2023-11-19T10:11:20;14.60;99.90
9179;DHT22;71287;48.414;11.478;2023-11-19T10:13:49;14.70;99.90
9179;DHT22;71287;48.414;11.478;2023-11-19T10:16:15;14.80;99.90
9179;DHT22;71287;48.414;11.478;2023-11-19T10:18:45;14.80;99.90
9179;DHT22;71287;48.414;11.478;2023-11-19T10:21:12;14.90;99.90
9179;DHT22;71287;48.414;11.478;2023-11-19T10:23:49;14.90;99.90
9179;DHT22;71287;48.414;11.478;2023-11-19T10:26:17;15.00;99.90
9179;DHT22;71287;48.414;11.478;2023-11-19T10:28:45;15.10;99.90
9179;DHT22;71287;48.414;11.478;2023-11-19T10:31:14;15.20;99.90
9179;DHT22;71287;48.414;11.478;2023-11-19T10:33:41;15.30;99.90
9179;DHT22;71287;48.414;11.478;2023-11-19T10:36:10;15.40;99.90
9179;DHT22;71287;48.414;11.478;2023-11-19T10:38:38;15.40;99.90
9179;DHT22;71287;48.414;11.478;2023-11-19T10:41:05;15.40;99.90
9179;DHT22;71287;48.414;11.478;2023-11-19T10:43:42;15.40;99.90
9179;DHT22;71287;48.414;11.478;2023-11-19T10:46:10;15.60;99.90
9179;DHT22;71287;48.414;11.478;2023-11-19T10:48:39;15.60;99.90
9179;DHT22;71287;48.414;11.478;2023-11-19T10:51:07;15.60;99.90
9179;DHT22;71287;48.414;11.478;2023-11-19T10:53:36;15.50;99.90
9179;DHT22;71287;48.414;11.478;2023-11-19T10:56:06;15.50;99.90
9179;DHT22;71287;48.414;11.478;2023-11-19T10:58:37;15.50;99.90
9179;DHT22;71287;48.414;11.478;2023-11-19T11:01:11;15.70;99.90
9179;DHT22;71287;48.414;11.478;2023-11-19T11:03:40;15.80;99.90
9179;DHT22;71287;48.414;11.478;2023-11-19T11:06:08;15.90;99.90
9179;DHT22;71287;48.414;11.478;2023-11-19T11:08:37;15.90;99.90
9179;DHT22;71287;48.414;11.478;2023-11-19T11:11:05;15.80;99.90
9179;DHT22;71287;48.414;11.478;2023-11-19T11:13:32;15.70;99.90
9179;DHT22;71287;48.414;11.478;2023-11-19T11:16:00;15.60;99.90
9179;DHT22;71287;48.414;11.478;2023-11-19T11:18:27;15.40;99.90
9179;DHT22;71287;48.414;11.478;2023-11-19T11:21:00;15.20;99.90
9179;DHT22;71287;48.414;11.478;2023-11-19T11:23:51;15.00;99.90
9179;DHT22;71287;48.414;11.478;2023-11-19T11:26:35;15.00;99.90
9179;DHT22;71287;48.414;11.478;2023-11-19T11:29:10;15.10;99.90
9179;DHT22;71287;48.414;11.478;2023-11-19T11:31:52;15.30;99.90
9179;DHT22;71287;48.414;11.478;2023-11-19T11:34:46;15.50;99.90
9179;DHT22;71287;48.414;11.478;2023-11-19T11:37:19;15.70;99.90
9179;DHT22;71287;48.414;11.478;2023-11-19T11:39:50;15.90;99.90
9179;DHT22;71287;48.414;11.478;2023-11-19T11:42:35;16.10;99.90
9179;DHT22;71287;48.414;11.478;2023-11-19T11:45:04;16.50;99.90
9179;DHT22;71287;48.414;11.478;2023-11-19T11:50:54;16.50;99.90
9179;DHT22;71287;48.414;11.478;2023-11-19T11:53:23;16.60;99.90
9179;DHT22;71287;48.414;11.478;2023-11-19T11:55:58;16.70;99.90
9179;DHT22;71287;48.414;11.478;2023-11-19T11:58:32;16.90;99.90
9179;DHT22;71287;48.414;11.478;2023-11-19T12:01:01;17.00;99.90
9179;DHT22;71287;48.414;11.478;2023-11-19T12:03:29;17.20;99.90
9179;DHT22;71287;48.414;11.478;2023-11-19T12:05:57;17.30;99.90
9179;DHT22;71287;48.414;11.478;2023-11-19T12:08:29;17.30;99.90
9179;DHT22;71287;48.414;11.478;2023-11-19T12:10:58;17.20;99.90
9179;DHT22;71287;48.414;11.478;2023-11-19T12:13:29;17.10;99.90
9179;DHT22;71287;48.414;11.478;2023-11-19T12:16:10;17.00;99.90
9179;DHT22;71287;48.414;11.478;2023-11-19T12:18:39;16.90;99.90
9179;DHT22;71287;48.414;11.478;2023-11-19T12:21:07;16.90;99.90
9179;DHT22;71287;48.414;11.478;2023-11-19T12:23:46;16.70;99.90
9179;DHT22;71287;48.414;11.478;2023-11-19T12:26:34;16.60;99.90
9179;DHT22;71287;48.414;11.478;2023-11-19T12:29:01;16.50;99.90
9179;DHT22;71287;48.414;11.478;2023-11-19T12:31:31;16.50;99.90
9179;DHT22;71287;48.414;11.478;2023-11-19T12:34:05;16.40;99.90
9179;DHT22;71287;48.414;11.478;2023-11-19T12:36:31;16.40;99.90
9179;DHT22;71287;48.414;11.478;2023-11-19T12:39:00;16.40;99.90
9179;DHT22;71287;48.414;11.478;2023-11-19T12:41:27;16.30;99.90
9179;DHT22;71287;48.414;11.478;2023-11-19T12:43:54;16.20;99.90
9179;DHT22;71287;48.414;11.478;2023-11-19T12:46:21;16.10;99.90
9179;DHT22;71287;48.414;11.478;2023-11-19T12:48:49;16.10;99.90
9179;DHT22;71287;48.414;11.478;2023-11-19T12:51:16;16.10;99.90
9179;DHT22;71287;48.414;11.478;2023-11-19T12:53:50;16.30;99.90
9179;DHT22;71287;48.414;11.478;2023-11-19T12:56:21;16.30;99.90
9179;DHT22;71287;48.414;11.478;2023-11-19T12:58:48;16.20;99.90
9179;DHT22;71287;48.414;11.478;2023-11-19T13:01:17;16.10;99.90
9179;DHT22;71287;48.414;11.478;2023-11-19T13:03:44;16.00;99.90
9179;DHT22;71287;48.414;11.478;2023-11-19T13:06:12;16.00;99.90
9179;DHT22;71287;48.414;11.478;2023-11-19T13:08:42;16.00;99.90
9179;DHT22;71287;48.414;11.478;2023-11-19T13:11:09;15.90;99.90
9179;DHT22;71287;48.414;11.478;2023-11-19T13:13:56;15.90;99.90
9179;DHT22;71287;48.414;11.478;2023-11-19T13:16:23;15.90;99.90
9179;DHT22;71287;48.414;11.478;2023-11-19T13:18:51;15.80;99.90
9179;DHT22;71287;48.414;11.478;2023-11-19T13:21:18;15.70;99.90
9179;DHT22;71287;48.414;11.478;2023-11-19T13:23:44;15.60;99.90
9179;DHT22;71287;48.414;11.478;2023-11-19T13:26:11;15.60;99.90
9179;DHT22;71287;48.414;11.478;2023-11-19T13:28:38;15.60;99.90
9179;DHT22;71287;48.414;11.478;2023-11-19T13:31:06;15.60;99.90
9179;DHT22;71287;48.414;11.478;2023-11-19T13:33:34;15.60;99.90
9179;DHT22;71287;48.414;11.478;2023-11-19T13:36:01;15.60;99.90
9179;DHT22;71287;48.414;11.478;2023-11-19T13:38:31;15.60;99.90
9179;DHT22;71287;48.414;11.478;2023-11-19T13:40:58;15.80;99.90
9179;DHT22;71287;48.414;11.478;2023-11-19T13:43:25;15.80;99.90
9179;DHT22;71287;48.414;11.478;2023-11-19T13:45:53;15.80;99.90
9179;DHT22;71287;48.414;11.478;2023-11-19T13:48:22;15.90;99.90
9179;DHT22;71287;48.414;11.478;2023-11-19T13:50:48;15.90;99.90
9179;DHT22;71287;48.414;11.478;2023-11-19T13:53:15;15.90;99.90
9179;DHT22;71287;48.414;11.478;2023-11-19T13:55:42;15.90;99.90
9179;DHT22;71287;48.414;11.478;2023-11-19T13:58:09;15.90;99.90
9179;DHT22;71287;48.414;11.478;2023-11-19T14:00:35;15.80;99.90
9179;DHT22;71287;48.414;11.478;2023-11-19T14:03:02;15.70;99.90
9179;DHT22;71287;48.414;11.478;2023-11-19T14:05:30;15.60;99.90
9179;DHT22;71287;48.414;11.478;2023-11-19T14:07:57;15.60;99.90
9179;DHT22;71287;48.414;11.478;2023-11-19T14:10:24;15.60;99.90
9179;DHT22;71287;48.414;11.478;2023-11-19T14:12:51;15.50;99.90
9179;DHT22;71287;48.414;11.478;2023-11-19T14:15:18;15.50;99.90
9179;DHT22;71287;48.414;11.478;2023-11-19T14:17:45;15.40;99.90
9179;DHT22;71287;48.414;11.478;2023-11-19T14:20:12;15.30;99.90
9179;DHT22;71287;48.414;11.478;2023-11-19T14:22:44;15.10;99.90
9179;DHT22;71287;48.414;11.478;2023-11-19T14:25:13;15.00;99.90
9179;DHT22;71287;48.414;11.478;2023-11-19T14:27:41;15.00;99.90
9179;DHT22;71287;48.414;11.478;2023-11-19T14:30:10;14.90;99.90
9179;DHT22;71287;48.414;11.478;2023-11-19T14:32:40;14.90;99.90
9179;DHT22;71287;48.414;11.478;2023-11-19T14:35:08;14.80;99.90
9179;DHT22;71287;48.414;11.478;2023-11-19T14:37:34;14.70;99.90
9179;DHT22;71287;48.414;11.478;2023-11-19T14:40:03;14.70;99.90
9179;DHT22;71287;48.414;11.478;2023-11-19T14:42:31;14.60;99.90
9179;DHT22;71287;48.414;11.478;2023-11-19T14:44:58;14.60;99.90
9179;DHT22;71287;48.414;11.478;2023-11-19T14:47:25;14.60;99.90
9179;DHT22;71287;48.414;11.478;2023-11-19T14:49:52;14.50;99.90
9179;DHT22;71287;48.414;11.478;2023-11-19T14:52:18;14.40;99.90
9179;DHT22;71287;48.414;11.478;2023-11-19T14:54:45;14.30;99.90
9179;DHT22;71287;48.414;11.478;2023-11-19T14:57:13;14.20;99.90
9179;DHT22;71287;48.414;11.478;2023-11-19T14:59:40;14.10;99.90
9179;DHT22;71287;48.414;11.478;2023-11-19T15:02:07;14.00;99.90
9179;DHT22;71287;48.414;11.478;2023-11-19T15:04:33;13.90;99.90
9179;DHT22;71287;48.414;11.478;2023-11-19T15:07:00;13.80;99.90
9179;DHT22;71287;48.414;11.478;2023-11-19T15:09:28;13.70;99.90
9179;DHT22;71287;48.414;11.478;2023-11-19T15:11:55;13.60;99.90
9179;DHT22;71287;48.414;11.478;2023-11-19T15:14:25;13.50;99.90
9179;DHT22;71287;48.414;11.478;2023-11-19T15:16:51;13.50;99.90
9179;DHT22;71287;48.414;11.478;2023-11-19T15:19:18;13.50;99.90
9179;DHT22;71287;48.414;11.478;2023-11-19T15:21:45;13.40;99.90
9179;DHT22;71287;48.414;11.478;2023-11-19T15:24:12;13.30;99.90
9179;DHT22;71287;48.414;11.478;2023-11-19T15:26:39;13.30;99.90
9179;DHT22;71287;48.414;11.478;2023-11-19T15:29:06;13.30;99.90
9179;DHT22;71287;48.414;11.478;2023-11-19T15:31:34;13.20;99.90
9179;DHT22;71287;48.414;11.478;2023-11-19T15:34:01;13.20;99.90
9179;DHT22;71287;48.414;11.478;2023-11-19T15:36:28;13.10;99.90
9179;DHT22;71287;48.414;11.478;2023-11-19T15:38:55;13.00;99.90
9179;DHT22;71287;48.414;11.478;2023-11-19T15:41:22;13.00;99.90
9179;DHT22;71287;48.414;11.478;2023-11-19T15:43:49;13.00;99.90
9179;DHT22;71287;48.414;11.478;2023-11-19T15:46:15;12.90;99.90
9179;DHT22;71287;48.414;11.478;2023-11-19T15:48:44;12.90;99.90